Time;durP1;ratioP1;P1;durP2;ratioP2;P2;SDS_P1;SDS_P2;PMS_P1;PMS_P2;Temp;Humidity;BMP_temperature;BMP_pressure;BME280_temperature;BME280_humidity;BME280_pressure;Samples;Min_cycle;Max_cycle;Signal;HPM_P1;HPM_P2
2021/01/20 00:00:58;;;;;;;;;;;;;;;20.57;43.08;99367.22;3099503;28;116497;-55
2021/01/20 00:02:30;;;;;;;;;;;;;;;20.56;43.30;99346.78;3104891;28;115744;-55
2021/01/20 00:04:02;;;;;;;;;;;;;;;20.55;43.21;99350.75;3110317;28;114792;-55
2021/01/20 00:05:33;;;;;;;;;;;;;;;20.57;43.52;99344.78;3104224;27;115767;-55
2021/01/20 00:07:04;;;;;;;;;;;;;;;20.55;43.39;99350.75;3099114;28;115217;-55
2021/01/20 00:08:35;;;;;;;;;;;;;;;20.56;43.43;99343.97;3098257;28;116006;-55
2021/01/20 00:10:07;;;;;;;;;;;;;;;20.56;43.29;99340.34;3094988;28;115876;-64
2021/01/20 00:11:38;;;;;;;;;;;;;;;20.57;43.59;99336.38;3102990;28;115730;-69
2021/01/20 00:13:10;;;;;;;;;;;;;;;20.56;43.67;99343.13;3110960;27;116695;-70
2021/01/20 00:14:41;;;;;;;;;;;;;;;20.54;43.54;99339.84;3107709;28;113828;-70
2021/01/20 00:16:13;;;;;;;;;;;;;;;20.53;43.62;99325.03;3107115;28;113868;-71
2021/01/20 00:17:44;;;;;;;;;;;;;;;20.53;43.78;99321.41;3107847;28;113949;-71
2021/01/20 00:19:16;;;;;;;;;;;;;;;20.51;43.44;99327.34;3099659;28;113829;-70
2021/01/20 00:20:47;;;;;;;;;;;;;;;20.51;43.49;99326.53;3101950;27;113731;-70
2021/01/20 00:22:29;;;;;;;;;;;;;;;20.52;43.35;99333.78;3109996;27;114963;-69
2021/01/20 00:24:01;;;;;;;;;;;;;;;20.50;43.82;99322.91;3105780;28;113816;-68
2021/01/20 00:25:32;;;;;;;;;;;;;;;20.51;43.54;99326.53;3099433;28;113796;-69
2021/01/20 00:27:06;;;;;;;;;;;;;;;20.50;43.69;99325.69;3111687;28;114339;-68
2021/01/20 00:28:38;;;;;;;;;;;;;;;20.48;43.71;99313.22;3110439;28;114402;-69
2021/01/20 00:30:09;;;;;;;;;;;;;;;20.47;43.50;99315.19;3097076;28;113835;-68
2021/01/20 00:31:41;;;;;;;;;;;;;;;20.45;43.83;99319.50;3096912;28;113989;-68
2021/01/20 00:33:13;;;;;;;;;;;;;;;20.44;43.88;99310.28;3101888;28;114134;-69
2021/01/20 00:34:44;;;;;;;;;;;;;;;20.43;43.69;99308.63;3103743;27;113899;-67
2021/01/20 00:36:16;;;;;;;;;;;;;;;20.42;43.96;99316.22;3088064;28;115166;-69
2021/01/20 00:37:47;;;;;;;;;;;;;;;20.42;44.14;99301.38;3097055;28;115157;-70
2021/01/20 00:39:18;;;;;;;;;;;;;;;20.42;43.68;99312.59;3101825;27;115395;-70
2021/01/20 00:40:51;;;;;;;;;;;;;;;20.41;43.68;99303.38;3105833;27;115329;-70
2021/01/20 00:42:22;;;;;;;;;;;;;;;20.39;43.94;99300.09;3111365;28;115246;-70
2021/01/20 00:43:53;;;;;;;;;;;;;;;20.39;43.85;99299.28;3109396;28;116021;-70
2021/01/20 00:45:24;;;;;;;;;;;;;;;20.38;44.00;99297.63;3104241;27;115346;-70
2021/01/20 00:46:56;;;;;;;;;;;;;;;20.38;44.00;99301.25;3106348;28;115240;-70
2021/01/20 00:48:27;;;;;;;;;;;;;;;20.37;44.16;99305.22;3104398;28;114061;-71
2021/01/20 00:49:59;;;;;;;;;;;;;;;20.36;44.14;99286.75;3105881;27;115520;-70
2021/01/20 00:51:30;;;;;;;;;;;;;;;20.34;44.31;99286.31;3108984;28;114690;-70
2021/01/20 00:53:01;;;;;;;;;;;;;;;20.34;44.43;99285.47;3107512;27;114164;-70
2021/01/20 00:54:34;;;;;;;;;;;;;;;20.34;44.37;99293.88;3104731;28;114130;-72
2021/01/20 00:56:06;;;;;;;;;;;;;;;20.32;44.62;99276.56;3092605;28;115580;-72
2021/01/20 00:57:37;;;;;;;;;;;;;;;20.33;44.36;99292.25;3099257;28;115597;-72
2021/01/20 00:59:09;;;;;;;;;;;;;;;20.31;44.73;99278.56;3096827;28;114676;-73
2021/01/20 01:00:40;;;;;;;;;;;;;;;20.31;44.43;99281.38;3105153;28;114563;-73
2021/01/20 01:02:11;;;;;;;;;;;;;;;20.30;44.34;99265.72;3109759;27;114782;-73
2021/01/20 01:03:42;;;;;;;;;;;;;;;20.29;44.43;99266.03;3107753;27;115436;-72
2021/01/20 01:05:14;;;;;;;;;;;;;;;20.27;44.29;99271.97;3104207;27;114690;-72
2021/01/20 01:06:45;;;;;;;;;;;;;;;20.28;44.55;99272.81;3095505;28;115134;-72
2021/01/20 01:08:16;;;;;;;;;;;;;;;20.26;44.38;99261.13;3092711;28;114904;-73
2021/01/20 01:09:47;;;;;;;;;;;;;;;20.26;44.44;99252.72;3095259;28;114588;-72
2021/01/20 01:11:19;;;;;;;;;;;;;;;20.24;44.37;99255.84;3100165;28;114609;-71
2021/01/20 01:12:50;;;;;;;;;;;;;;;20.24;44.34;99260.66;3108612;27;114791;-72
2021/01/20 01:14:21;;;;;;;;;;;;;;;20.24;44.54;99255.03;3110157;28;116082;-72
2021/01/20 01:15:52;;;;;;;;;;;;;;;20.22;44.22;99255.38;3108683;28;116617;-71
2021/01/20 01:17:23;;;;;;;;;;;;;;;20.22;44.57;99251.75;3107037;28;114861;-71
2021/01/20 01:18:55;;;;;;;;;;;;;;;20.20;44.47;99245.69;3109904;28;114655;-72
2021/01/20 01:20:26;;;;;;;;;;;;;;;20.20;44.42;99257.72;3102805;27;113779;-71
2021/01/20 01:21:58;;;;;;;;;;;;;;;20.21;44.47;99245.34;3095802;28;113971;-72
2021/01/20 01:23:29;;;;;;;;;;;;;;;20.19;44.53;99250.47;3102785;27;114253;-73
2021/01/20 01:25:00;;;;;;;;;;;;;;;20.19;44.64;99238.44;3105733;28;113792;-72
2021/01/20 01:26:31;;;;;;;;;;;;;;;20.17;44.75;99244.38;3101490;27;114595;-72
2021/01/20 01:28:13;;;;;;;;;;;;;;;20.18;44.67;99240.41;3111153;27;115020;-72
2021/01/20 01:29:44;;;;;;;;;;;;;;;20.17;44.60;99240.78;3087896;28;114080;-71
2021/01/20 01:31:15;;;;;;;;;;;;;;;20.15;44.92;99229.06;3103956;28;114502;-72
2021/01/20 01:32:47;;;;;;;;;;;;;;;20.15;44.93;99235.50;3102551;28;114238;-72
2021/01/20 01:34:18;;;;;;;;;;;;;;;20.15;44.75;99245.91;3104826;27;113779;-72
2021/01/20 01:35:49;;;;;;;;;;;;;;;20.15;44.97;99223.47;3106319;27;114511;-70
2021/01/20 01:37:20;;;;;;;;;;;;;;;20.13;44.59;99232.22;3109259;27;114219;-70
2021/01/20 01:38:51;;;;;;;;;;;;;;;20.13;44.97;99225.78;3099305;27;116124;-70
2021/01/20 01:40:28;;;;;;;;;;;;;;;20.11;45.06;99228.13;3093611;27;114528;-70
2021/01/20 01:42:01;;;;;;;;;;;;;;;20.11;44.94;99231.75;3102752;27;115250;-70
2021/01/20 01:43:33;;;;;;;;;;;;;;;20.10;45.23;99232.09;3099936;28;115307;-70
2021/01/20 01:45:04;;;;;;;;;;;;;;;20.09;45.08;99222.03;3096721;27;115353;-70
2021/01/20 01:46:37;;;;;;;;;;;;;;;20.09;45.18;99216.44;3107155;28;114306;-70
2021/01/20 01:48:08;;;;;;;;;;;;;;;20.08;45.25;99223.25;3103717;28;114253;-70
2021/01/20 01:49:40;;;;;;;;;;;;;;;20.06;45.20;99226.38;3102234;27;114190;-70
2021/01/20 01:51:11;;;;;;;;;;;;;;;20.07;45.26;99227.19;3100418;28;115216;-70
2021/01/20 01:52:43;;;;;;;;;;;;;;;20.06;45.40;99219.94;3096498;28;115344;-70
2021/01/20 01:54:15;;;;;;;;;;;;;;;20.05;45.14;99218.31;3104979;28;116996;-70
2021/01/20 01:55:47;;;;;;;;;;;;;;;20.05;45.44;99223.91;3105653;27;115163;-70
2021/01/20 01:57:19;;;;;;;;;;;;;;;20.05;45.20;99204.28;3096264;28;115202;-70
2021/01/20 01:58:52;;;;;;;;;;;;;;;20.03;45.42;99209.44;3105858;28;114174;-70
2021/01/20 02:00:23;;;;;;;;;;;;;;;20.03;45.41;99217.84;3087593;28;115263;-70
2021/01/20 02:01:55;;;;;;;;;;;;;;;20.03;45.37;99209.44;3103114;28;114683;-70
2021/01/20 02:03:26;;;;;;;;;;;;;;;20.04;45.65;99202.66;3108891;28;116815;-56
2021/01/20 02:04:58;;;;;;;;;;;;;;;20.04;45.88;99200.66;3092678;28;115635;-55
2021/01/20 02:06:29;;;;;;;;;;;;;;;20.02;45.88;99191.81;3091534;28;115792;-55
2021/01/20 02:08:03;;;;;;;;;;;;;;;20.01;45.68;99197.75;3105024;27;115799;-56
2021/01/20 02:09:35;;;;;;;;;;;;;;;19.99;45.99;99190.50;3102962;28;115759;-56
2021/01/20 02:11:18;;;;;;;;;;;;;;;19.99;45.78;99184.88;3108034;28;115864;-56
2021/01/20 02:13:01;;;;;;;;;;;;;;;19.98;45.88;99186.06;3110498;28;115786;-56
2021/01/20 02:14:43;;;;;;;;;;;;;;;19.95;46.19;99191.53;3107872;27;116525;-56
2021/01/20 02:16:15;;;;;;;;;;;;;;;19.95;46.04;99199.94;3092183;28;115745;-56
2021/01/20 02:17:56;;;;;;;;;;;;;;;19.93;46.11;99179.88;3093053;28;115810;-59
2021/01/20 02:19:48;;;;;;;;;;;;;;;19.95;45.89;99185.94;3098942;27;115825;-56
2021/01/20 02:21:35;;;;;;;;;;;;;;;19.92;46.26;99186.63;3109155;28;115845;-56
2021/01/20 02:23:08;;;;;;;;;;;;;;;19.92;46.04;99181.03;3099649;27;114751;-56
2021/01/20 02:24:51;;;;;;;;;;;;;;;19.91;46.01;99185.00;3102496;27;115219;-56
2021/01/20 02:26:25;;;;;;;;;;;;;;;19.90;45.96;99181.38;3108910;28;114399;-55
2021/01/20 02:28:08;;;;;;;;;;;;;;;19.89;45.93;99171.34;3104842;28;114528;-56
2021/01/20 02:29:57;;;;;;;;;;;;;;;19.88;45.98;99171.69;3099201;28;115187;-56
2021/01/20 02:31:29;;;;;;;;;;;;;;;19.88;46.05;99180.91;3099056;28;114261;-56
2021/01/20 02:33:07;;;;;;;;;;;;;;;19.87;46.32;99167.22;3107425;28;113821;-56
2021/01/20 02:35:06;;;;;;;;;;;;;;;19.86;46.29;99158.00;3105332;28;117131;-56
2021/01/20 02:36:58;;;;;;;;;;;;;;;19.86;46.11;99166.41;3109773;28;113859;-56
2021/01/20 02:38:33;;;;;;;;;;;;;;;19.84;45.95;99146.34;3096956;28;113999;-56
2021/01/20 02:40:05;;;;;;;;;;;;;;;19.82;46.09;99157.06;3105445;27;114607;-54
2021/01/20 02:41:37;;;;;;;;;;;;;;;19.82;46.10;99145.84;3097238;28;114225;-54
2021/01/20 02:43:08;;;;;;;;;;;;;;;19.85;46.23;99155.56;3105490;28;114209;-54
2021/01/20 02:44:40;;;;;;;;;;;;;;;19.83;46.06;99147.50;3096403;28;114495;-54
2021/01/20 02:46:11;;;;;;;;;;;;;;;19.83;46.11;99139.09;3099084;28;114298;-55
2021/01/20 02:47:44;;;;;;;;;;;;;;;19.81;46.22;99141.41;3105059;27;114029;-54
2021/01/20 02:49:16;;;;;;;;;;;;;;;19.81;46.42;99143.38;3114692;28;113858;-56
2021/01/20 02:50:47;;;;;;;;;;;;;;;19.80;46.48;99137.00;3097726;28;114865;-54
2021/01/20 02:52:40;;;;;;;;;;;;;;;19.79;46.43;99140.94;3106792;28;115627;-55
2021/01/20 02:54:13;;;;;;;;;;;;;;;19.79;46.62;99137.31;3110299;28;114238;-54
2021/01/20 02:55:49;;;;;;;;;;;;;;;19.79;46.57;99131.72;3111519;27;115056;-54
2021/01/20 02:57:20;;;;;;;;;;;;;;;19.76;46.46;99127.63;3102020;28;115323;-55
2021/01/20 02:58:52;;;;;;;;;;;;;;;19.77;46.60;99126.47;3086825;28;114295;-54
2021/01/20 03:00:24;;;;;;;;;;;;;;;19.77;46.73;99120.03;3092736;28;115500;-54
2021/01/20 03:01:56;;;;;;;;;;;;;;;19.77;46.67;99123.66;3101311;27;114362;-55
2021/01/20 03:03:29;;;;;;;;;;;;;;;19.78;46.45;99113.28;3097732;28;115312;-55
2021/01/20 03:05:01;;;;;;;;;;;;;;;19.77;46.75;99114.44;3106673;28;115207;-55
2021/01/20 03:06:34;;;;;;;;;;;;;;;19.76;46.72;99122.00;3086072;28;115266;-55
2021/01/20 03:08:06;;;;;;;;;;;;;;;19.75;46.57;99106.38;3106492;28;114255;-55
2021/01/20 03:09:37;;;;;;;;;;;;;;;19.73;46.79;99114.31;3095294;28;115138;-55
2021/01/20 03:11:09;;;;;;;;;;;;;;;19.73;46.71;99121.91;3110644;28;115183;-55
2021/01/20 03:12:42;;;;;;;;;;;;;;;19.72;46.82;99114.66;3112212;27;115408;-56
2021/01/20 03:14:14;;;;;;;;;;;;;;;19.71;46.58;99111.06;3096899;28;116669;-55
2021/01/20 03:15:46;;;;;;;;;;;;;;;19.70;46.59;99112.22;3106086;28;115095;-55
2021/01/20 03:17:17;;;;;;;;;;;;;;;19.70;46.67;99112.22;3097428;28;115932;-55
2021/01/20 03:18:48;;;;;;;;;;;;;;;19.70;46.83;99112.22;3092842;28;115305;-55
2021/01/20 03:20:20;;;;;;;;;;;;;;;19.69;46.67;99113.38;3106350;28;115914;-70
2021/01/20 03:21:51;;;;;;;;;;;;;;;19.70;46.58;99105.78;3107297;28;114495;-69
2021/01/20 03:23:22;;;;;;;;;;;;;;;19.67;46.61;99112.88;3097682;28;116044;-69
2021/01/20 03:24:53;;;;;;;;;;;;;;;19.68;46.71;99108.94;3099984;28;114725;-69
2021/01/20 03:26:25;;;;;;;;;;;;;;;19.67;46.65;99114.91;3093387;28;114749;-54
2021/01/20 03:27:57;;;;;;;;;;;;;;;19.66;47.33;99110.47;3098290;28;115960;-56
2021/01/20 03:29:28;;;;;;;;;;;;;;;19.66;46.85;99102.88;3099978;28;114780;-55
2021/01/20 03:30:59;;;;;;;;;;;;;;;19.66;46.77;99113.25;3106005;27;115860;-55
2021/01/20 03:32:30;;;;;;;;;;;;;;;19.65;46.97;99101.22;3114079;27;115054;-55
2021/01/20 03:34:01;;;;;;;;;;;;;;;19.66;46.99;99102.88;3105781;27;114043;-56
2021/01/20 03:35:34;;;;;;;;;;;;;;;19.65;46.89;99109.63;3108211;27;114441;-55
2021/01/20 03:37:05;;;;;;;;;;;;;;;19.65;46.92;99103.22;3086481;28;115106;-56
2021/01/20 03:38:36;;;;;;;;;;;;;;;19.64;46.76;99107.16;3097624;28;114458;-55
2021/01/20 03:40:08;;;;;;;;;;;;;;;19.64;46.86;99095.97;3105848;28;114231;-56
2021/01/20 03:41:42;;;;;;;;;;;;;;;19.66;46.50;99110.47;3101665;28;113919;-55
2021/01/20 03:43:13;;;;;;;;;;;;;;;19.63;46.80;99091.53;3109472;28;114924;-55
2021/01/20 03:44:44;;;;;;;;;;;;;;;19.62;46.81;99101.94;3104116;27;114356;-56
2021/01/20 03:46:16;;;;;;;;;;;;;;;19.62;46.75;99087.94;3104375;27;114104;-55
2021/01/20 03:47:48;;;;;;;;;;;;;;;19.62;46.81;99090.72;3102817;27;114431;-56
2021/01/20 03:49:19;;;;;;;;;;;;;;;19.61;46.80;99085.47;3107351;27;114024;-55
2021/01/20 03:50:50;;;;;;;;;;;;;;;19.60;46.76;99093.03;3098744;28;113857;-66
2021/01/20 03:52:21;;;;;;;;;;;;;;;19.59;46.89;99079.38;3106514;28;113842;-66
2021/01/20 03:53:52;;;;;;;;;;;;;;;19.59;46.99;99088.59;3101855;27;114262;-66
2021/01/20 03:55:24;;;;;;;;;;;;;;;19.58;46.83;99075.75;3107179;28;115355;-67
2021/01/20 03:56:55;;;;;;;;;;;;;;;19.58;46.89;99092.56;3101143;28;113979;-55
2021/01/20 03:58:26;;;;;;;;;;;;;;;19.57;46.65;99076.94;3105039;28;114109;-55
2021/01/20 03:59:57;;;;;;;;;;;;;;;19.57;46.92;99073.31;3110357;27;114139;-55
2021/01/20 04:01:29;;;;;;;;;;;;;;;19.56;46.66;99077.28;3109140;27;114142;-55
2021/01/20 04:03:00;;;;;;;;;;;;;;;19.56;46.99;99075.31;3108121;28;115926;-55
2021/01/20 04:04:32;;;;;;;;;;;;;;;19.56;46.88;99072.50;3098274;28;114755;-55
2021/01/20 04:06:04;;;;;;;;;;;;;;;19.56;46.81;99069.69;3110492;28;115399;-55
2021/01/20 04:07:35;;;;;;;;;;;;;;;19.54;47.01;99067.22;3098162;28;115144;-56
2021/01/20 04:09:06;;;;;;;;;;;;;;;19.53;46.69;99068.41;3105377;28;114342;-55
2021/01/20 04:10:37;;;;;;;;;;;;;;;19.52;46.88;99058.38;3107627;27;114343;-55
2021/01/20 04:12:09;;;;;;;;;;;;;;;19.51;47.01;99070.75;3092681;28;114361;-55
2021/01/20 04:13:40;;;;;;;;;;;;;;;19.53;46.78;99064.81;3099542;28;115088;-55
2021/01/20 04:15:12;;;;;;;;;;;;;;;19.52;46.92;99055.56;3099718;28;114818;-55
2021/01/20 04:16:44;;;;;;;;;;;;;;;19.51;47.04;99053.13;3099912;27;115171;-55
2021/01/20 04:18:15;;;;;;;;;;;;;;;19.50;47.01;99060.69;3097773;27;114997;-56
2021/01/20 04:19:47;;;;;;;;;;;;;;;19.49;46.97;99045.03;3110069;28;114391;-55
2021/01/20 04:21:18;;;;;;;;;;;;;;;19.50;46.89;99048.66;3103522;28;114699;-55
2021/01/20 04:22:49;;;;;;;;;;;;;;;19.51;46.96;99058.72;3104436;27;114793;-56
2021/01/20 04:24:20;;;;;;;;;;;;;;;19.50;46.98;99048.66;3104629;28;114675;-56
2021/01/20 04:25:52;;;;;;;;;;;;;;;19.50;46.93;99059.88;3095519;28;115061;-56
2021/01/20 04:27:23;;;;;;;;;;;;;;;19.48;46.83;99045.41;3101760;28;115229;-55
2021/01/20 04:28:54;;;;;;;;;;;;;;;19.46;47.41;99045.75;3097390;28;115760;-55
2021/01/20 04:30:32;;;;;;;;;;;;;;;19.46;46.84;99039.31;3100672;28;114794;-55
2021/01/20 04:32:04;;;;;;;;;;;;;;;19.45;47.07;99060.09;3095553;28;115228;-55
2021/01/20 04:33:35;;;;;;;;;;;;;;;19.44;47.25;99041.69;3105012;28;115902;-55
2021/01/20 04:35:07;;;;;;;;;;;;;;;19.44;47.15;99044.47;3106239;28;114853;-55
2021/01/20 04:36:50;;;;;;;;;;;;;;;19.46;47.12;99044.94;3108650;27;115928;-56
2021/01/20 04:38:23;;;;;;;;;;;;;;;19.44;47.36;99045.28;3112080;28;114787;-55
2021/01/20 04:39:54;;;;;;;;;;;;;;;19.43;47.09;99052.06;3109475;28;114837;-55
2021/01/20 04:41:26;;;;;;;;;;;;;;;19.43;47.29;99028.81;3110045;28;114291;-55
2021/01/20 04:42:58;;;;;;;;;;;;;;;19.43;47.12;99029.66;3106911;27;114358;-55
2021/01/20 04:44:30;;;;;;;;;;;;;;;19.43;47.07;99040.84;3104387;28;114217;-56
2021/01/20 04:46:02;;;;;;;;;;;;;;;19.42;47.18;99035.56;3110240;28;114742;-55
2021/01/20 04:47:33;;;;;;;;;;;;;;;19.42;47.11;99022.38;3100532;27;114005;-55
2021/01/20 04:49:06;;;;;;;;;;;;;;;19.42;47.22;99032.75;3102142;27;114576;-55
2021/01/20 04:50:40;;;;;;;;;;;;;;;19.40;47.25;99023.88;3105007;27;114442;-55
2021/01/20 04:52:15;;;;;;;;;;;;;;;19.40;47.27;99018.28;3111073;28;114391;-55
2021/01/20 04:53:46;;;;;;;;;;;;;;;19.37;47.47;99017.00;3109920;28;114357;-54
2021/01/20 04:55:18;;;;;;;;;;;;;;;19.36;47.33;99018.16;3110552;28;114176;-55
2021/01/20 04:56:50;;;;;;;;;;;;;;;19.36;47.36;99012.56;3096111;28;114790;-55
2021/01/20 04:58:22;;;;;;;;;;;;;;;19.36;47.42;99017.34;3116416;27;114520;-54
2021/01/20 04:59:53;;;;;;;;;;;;;;;19.34;47.29;99014.09;3101245;28;114513;-54
2021/01/20 05:01:25;;;;;;;;;;;;;;;19.35;47.35;99026.94;3105043;28;115543;-56
2021/01/20 05:02:58;;;;;;;;;;;;;;;19.32;47.30;99017.22;3109512;28;114046;-56
2021/01/20 05:04:29;;;;;;;;;;;;;;;19.33;47.48;99018.88;3110037;28;115246;-57
2021/01/20 05:06:01;;;;;;;;;;;;;;;19.34;47.36;99012.09;3098000;27;115310;-57
2021/01/20 05:07:34;;;;;;;;;;;;;;;19.39;47.42;99017.47;3097906;28;114462;-56
2021/01/20 05:09:05;;;;;;;;;;;;;;;19.42;47.75;99024.34;3108916;27;115303;-56
2021/01/20 05:10:36;;;;;;;;;;;;;;;19.44;47.62;99019.28;3109411;28;114717;-56
2021/01/20 05:12:07;;;;;;;;;;;;;;;19.46;47.47;99000.13;3110483;28;115555;-56
2021/01/20 05:13:39;;;;;;;;;;;;;;;19.50;47.69;99006.66;3109773;28;114801;-56
2021/01/20 05:15:11;;;;;;;;;;;;;;;19.54;47.88;99013.19;3110578;27;114626;-56
2021/01/20 05:16:43;;;;;;;;;;;;;;;19.58;47.49;99014.13;3095891;28;115330;-56
2021/01/20 05:18:14;;;;;;;;;;;;;;;19.61;47.71;99005.03;3102280;27;115076;-56
2021/01/20 05:19:46;;;;;;;;;;;;;;;19.65;47.36;99003.19;3091843;28;116313;-57
2021/01/20 05:21:19;;;;;;;;;;;;;;;19.71;47.62;98995.34;3107780;28;115904;-56
2021/01/20 05:23:00;;;;;;;;;;;;;;;19.74;47.84;99006.69;3109229;27;118650;-57
2021/01/20 05:24:35;;;;;;;;;;;;;;;19.79;47.88;99012.06;3108014;28;115771;-57
2021/01/20 05:26:06;;;;;;;;;;;;;;;19.84;48.08;99002.59;3108449;28;115718;-56
2021/01/20 05:27:54;;;;;;;;;;;;;;;19.88;48.16;99009.13;3107837;28;114634;-57
2021/01/20 05:29:38;;;;;;;;;;;;;;;19.94;47.73;98994.50;3104573;27;114981;-54
2021/01/20 05:31:24;;;;;;;;;;;;;;;20.01;47.94;98990.31;3106022;28;116403;-56
2021/01/20 05:33:00;;;;;;;;;;;;;;;20.08;47.99;99005.34;3095904;28;114488;-56
2021/01/20 05:34:32;;;;;;;;;;;;;;;20.14;47.79;98997.53;3104432;28;116308;-56
2021/01/20 05:36:03;;;;;;;;;;;;;;;20.21;47.30;98992.97;3109295;28;114811;-53
2021/01/20 05:37:52;;;;;;;;;;;;;;;20.26;47.41;98995.50;3098721;28;116014;-56
2021/01/20 05:39:23;;;;;;;;;;;;;;;20.34;47.43;98994.59;3109209;28;116068;-55
2021/01/20 05:40:54;;;;;;;;;;;;;;;20.40;47.18;99000.75;3109684;28;114109;-53
2021/01/20 05:42:25;;;;;;;;;;;;;;;20.47;46.83;98994.56;3114120;27;115252;-54
2021/01/20 05:44:11;;;;;;;;;;;;;;;20.51;46.52;98985.06;3112406;27;115316;-54
2021/01/20 05:45:45;;;;;;;;;;;;;;;20.57;46.36;98988.44;3103267;27;114522;-54
2021/01/20 05:47:16;;;;;;;;;;;;;;;20.62;46.22;98977.78;3108938;28;114203;-54
2021/01/20 05:48:48;;;;;;;;;;;;;;;20.67;45.82;98976.72;3102015;27;114596;-56
2021/01/20 05:50:19;;;;;;;;;;;;;;;20.71;45.65;98989.69;3094430;28;114313;-56
2021/01/20 05:51:52;;;;;;;;;;;;;;;20.75;45.70;99001.00;3098339;27;114274;-54
2021/01/20 05:53:23;;;;;;;;;;;;;;;20.79;45.52;98991.50;3102029;28;114339;-54
2021/01/20 05:54:54;;;;;;;;;;;;;;;20.84;45.34;98987.63;3107151;28;114566;-55
2021/01/20 05:56:29;;;;;;;;;;;;;;;20.89;45.12;98978.94;3096667;28;114548;-54
2021/01/20 05:58:01;;;;;;;;;;;;;;;20.94;45.63;98966.66;3102984;28;114113;-54
2021/01/20 05:59:32;;;;;;;;;;;;;;;20.97;45.29;98983.59;3104673;27;113894;-54
2021/01/20 06:01:08;;;;;;;;;;;;;;;21.00;45.39;98971.63;3104653;27;114900;-55
2021/01/20 06:02:40;;;;;;;;;;;;;;;21.04;45.16;98971.72;3104002;27;113765;-53
2021/01/20 06:04:11;;;;;;;;;;;;;;;21.07;44.87;98974.63;3096871;28;114060;-54
2021/01/20 06:05:43;;;;;;;;;;;;;;;21.11;44.89;98971.91;3106738;27;114374;-54
2021/01/20 06:07:15;;;;;;;;;;;;;;;21.14;44.76;98965.59;3098438;28;113925;-54
2021/01/20 06:08:46;;;;;;;;;;;;;;;21.16;44.68;98966.91;3084689;28;114355;-54
2021/01/20 06:10:18;;;;;;;;;;;;;;;21.21;44.64;98975.03;3085434;28;115461;-54
2021/01/20 06:11:50;;;;;;;;;;;;;;;21.24;44.89;98953.84;3098955;28;114351;-54
2021/01/20 06:13:21;;;;;;;;;;;;;;;21.28;44.89;98963.16;3101519;28;119281;-55
2021/01/20 06:14:52;;;;;;;;;;;;;;;21.32;44.68;98952.84;3108683;27;114179;-69
2021/01/20 06:16:25;;;;;;;;;;;;;;;21.35;44.72;98962.56;3102219;27;114613;-70
2021/01/20 06:17:57;;;;;;;;;;;;;;;21.37;44.80;98949.75;3103194;27;115057;-69
2021/01/20 06:19:29;;;;;;;;;;;;;;;21.40;44.25;98943.41;3095405;28;114228;-70
2021/01/20 06:21:00;;;;;;;;;;;;;;;21.44;44.35;98951.94;3084105;28;114603;-70
2021/01/20 06:22:33;;;;;;;;;;;;;;;21.46;44.58;98947.59;3094395;27;116411;-69
2021/01/20 06:24:13;;;;;;;;;;;;;;;21.50;44.33;98944.84;3097259;28;115437;-70
2021/01/20 06:25:44;;;;;;;;;;;;;;;21.53;44.10;98946.97;3108881;27;114671;-71
2021/01/20 06:27:21;;;;;;;;;;;;;;;21.56;44.04;98940.59;3098542;28;114083;-70
2021/01/20 06:29:01;;;;;;;;;;;;;;;21.59;44.56;98940.69;3102105;28;114490;-70
2021/01/20 06:30:39;;;;;;;;;;;;;;;21.63;44.54;98933.16;3107357;27;114512;-70
2021/01/20 06:32:14;;;;;;;;;;;;;;;21.67;43.95;98930.41;3102001;27;116106;-70
2021/01/20 06:33:46;;;;;;;;;;;;;;;21.70;43.83;98935.31;3105264;28;115045;-70
2021/01/20 06:35:17;;;;;;;;;;;;;;;21.73;44.12;98935.41;3107274;28;114627;-70
2021/01/20 06:36:49;;;;;;;;;;;;;;;21.76;44.21;98925.41;3090047;28;115699;-70
2021/01/20 06:38:39;;;;;;;;;;;;;;;21.80;43.91;98933.94;3095379;28;116093;-70
2021/01/20 06:40:22;;;;;;;;;;;;;;;21.83;43.84;98927.59;3092565;28;116187;-70
2021/01/20 06:41:53;;;;;;;;;;;;;;;21.85;43.84;98931.66;3106710;27;114935;-71
2021/01/20 06:43:35;;;;;;;;;;;;;;;21.88;43.54;98930.13;3110451;28;115807;-71
2021/01/20 06:45:17;;;;;;;;;;;;;;;21.93;44.27;98933.50;3109674;27;115693;-72
2021/01/20 06:46:59;;;;;;;;;;;;;;;21.96;43.78;98927.13;3109475;28;114614;-71
2021/01/20 06:48:53;;;;;;;;;;;;;;;21.99;44.02;98917.94;3110015;27;114186;-70
2021/01/20 06:50:25;;;;;;;;;;;;;;;22.03;43.97;98929.31;3103659;28;116319;-70
2021/01/20 06:52:08;;;;;;;;;;;;;;;22.05;44.05;98924.94;3114052;28;115879;-70
2021/01/20 06:53:58;;;;;;;;;;;;;;;22.08;43.83;98921.38;3109597;27;114231;-71
2021/01/20 06:55:32;;;;;;;;;;;;;;;22.13;43.70;98956.81;3109884;28;114058;-72
2021/01/20 06:57:25;;;;;;;;;;;;;;;22.14;43.33;98917.09;3110022;27;114327;-71
2021/01/20 06:59:16;;;;;;;;;;;;;;;22.18;43.30;98929.22;3110227;28;114175;-71
2021/01/20 07:01:00;;;;;;;;;;;;;;;22.21;43.13;98922.06;3109342;27;113942;-72
2021/01/20 07:02:50;;;;;;;;;;;;;;;22.25;43.40;98942.66;3106712;28;113947;-71
2021/01/20 07:04:37;;;;;;;;;;;;;;;22.27;43.08;98922.56;3109822;28;113713;-71
2021/01/20 07:06:38;;;;;;;;;;;;;;;22.29;43.30;98937.91;3108862;27;114239;-71
2021/01/20 07:08:10;;;;;;;;;;;;;;;22.33;43.22;98930.34;3087454;28;114318;-71
2021/01/20 07:09:50;;;;;;;;;;;;;;;22.34;42.93;98920.72;3096324;28;113790;-72
2021/01/20 07:11:21;;;;;;;;;;;;;;;22.36;42.94;98911.91;3097598;28;114038;-71
2021/01/20 07:13:11;;;;;;;;;;;;;;;22.37;43.17;98913.53;3100713;28;114083;-71
2021/01/20 07:14:43;;;;;;;;;;;;;;;22.40;43.12;98910.78;3098724;28;114092;-72
2021/01/20 07:16:16;;;;;;;;;;;;;;;22.44;42.88;98908.06;3099577;28;114201;-71
2021/01/20 07:17:47;;;;;;;;;;;;;;;22.47;43.28;98918.59;3105999;27;113949;-71
2021/01/20 07:19:19;;;;;;;;;;;;;;;22.49;43.33;98910.56;3111720;28;115237;-71
2021/01/20 07:20:51;;;;;;;;;;;;;;;22.52;43.47;98912.66;3112464;27;114123;-71
2021/01/20 07:22:22;;;;;;;;;;;;;;;22.53;43.29;98911.47;3110312;28;114257;-71
2021/01/20 07:23:53;;;;;;;;;;;;;;;22.56;43.20;98907.91;3110838;28;114045;-71
2021/01/20 07:25:25;;;;;;;;;;;;;;;22.57;42.96;98907.53;3086421;28;115606;-71
2021/01/20 07:27:02;;;;;;;;;;;;;;;22.58;43.06;98902.72;3115874;27;115230;-71
2021/01/20 07:28:34;;;;;;;;;;;;;;;22.60;42.83;98908.78;3111905;28;116014;-71
2021/01/20 07:30:14;;;;;;;;;;;;;;;22.59;42.98;98907.16;3099848;28;114376;-71
2021/01/20 07:31:46;;;;;;;;;;;;;;;22.60;43.10;98903.97;3109843;28;114780;-71
2021/01/20 07:33:18;;;;;;;;;;;;;;;22.61;43.05;98904.81;3109846;27;114116;-71
2021/01/20 07:34:50;;;;;;;;;;;;;;;22.63;42.84;98905.22;3109039;28;115257;-73
2021/01/20 07:36:27;;;;;;;;;;;;;;;22.61;43.02;98904.81;3107655;27;116723;-72
2021/01/20 07:38:03;;;;;;;;;;;;;;;22.61;42.61;98897.16;3105879;28;116906;-72
2021/01/20 07:39:37;;;;;;;;;;;;;;;22.60;42.81;98900.34;3098657;27;115130;-72
2021/01/20 07:41:16;;;;;;;;;;;;;;;22.61;42.73;98901.97;3114569;27;117225;-56
2021/01/20 07:42:49;;;;;;;;;;;;;;;22.59;42.37;98899.53;3099172;28;116481;-56
2021/01/20 07:44:20;;;;;;;;;;;;;;;22.59;42.68;98905.16;3098196;28;115871;-56
2021/01/20 07:45:52;;;;;;;;;;;;;;;22.58;42.47;98894.25;3096205;28;114907;-56
2021/01/20 07:47:24;;;;;;;;;;;;;;;22.57;42.55;98895.47;3095292;28;115704;-56
2021/01/20 07:48:55;;;;;;;;;;;;;;;22.56;42.33;98888.22;3094608;28;114961;-56
2021/01/20 07:50:40;;;;;;;;;;;;;;;22.54;42.55;98897.00;3107216;28;116103;-56
2021/01/20 07:52:11;;;;;;;;;;;;;;;22.53;42.63;98889.75;3110500;28;115346;-55
2021/01/20 07:54:04;;;;;;;;;;;;;;;22.52;43.37;98888.16;3109698;27;115237;-55
2021/01/20 07:55:36;;;;;;;;;;;;;;;22.51;43.02;98891.31;3097280;28;114558;-55
2021/01/20 07:57:08;;;;;;;;;;;;;;;22.49;42.96;98894.50;3094910;28;116000;-55
2021/01/20 07:58:39;;;;;;;;;;;;;;;22.47;42.81;98894.06;3103110;28;115444;-54
2021/01/20 08:00:11;;;;;;;;;;;;;;;22.47;42.93;98896.06;3101289;28;114798;-54
2021/01/20 08:01:42;;;;;;;;;;;;;;;22.44;42.81;98883.53;3115005;28;117764;-54